sensor_id;sensor_type;location;lat;lon;timestamp;P1;durP1;ratioP1;P2;durP2;ratioP2
3841;SDS011;1936;47.074;15.336;2023-09-30T00:01:26;8.60;;;7.80;;
3841;SDS011;1936;47.074;15.336;2023-09-30T00:03:30;14.27;;;7.20;;
3841;SDS011;1936;47.074;15.336;2023-09-30T00:05:37;9.73;;;8.20;;
3841;SDS011;1936;47.074;15.336;2023-09-30T00:07:40;9.57;;;8.50;;
3841;SDS011;1936;47.074;15.336;2023-09-30T00:09:44;9.33;;;8.43;;
3841;SDS011;1936;47.074;15.336;2023-09-30T00:11:47;9.73;;;8.73;;
3841;SDS011;1936;47.074;15.336;2023-09-30T00:13:51;10.20;;;7.90;;
3841;SDS011;1936;47.074;15.336;2023-09-30T00:15:55;9.00;;;8.20;;
3841;SDS011;1936;47.074;15.336;2023-09-30T00:17:58;11.13;;;8.90;;
3841;SDS011;1936;47.074;15.336;2023-09-30T00:20:03;8.30;;;7.47;;
3841;SDS011;1936;47.074;15.336;2023-09-30T00:22:08;10.57;;;8.37;;
3841;SDS011;1936;47.074;15.336;2023-09-30T00:24:12;11.23;;;8.83;;
3841;SDS011;1936;47.074;15.336;2023-09-30T00:26:16;9.77;;;8.90;;
3841;SDS011;1936;47.074;15.336;2023-09-30T00:28:19;9.83;;;8.83;;
3841;SDS011;1936;47.074;15.336;2023-09-30T00:30:22;11.20;;;7.67;;
3841;SDS011;1936;47.074;15.336;2023-09-30T00:32:26;10.00;;;8.73;;
3841;SDS011;1936;47.074;15.336;2023-09-30T00:34:32;10.40;;;9.27;;
3841;SDS011;1936;47.074;15.336;2023-09-30T00:36:35;8.97;;;8.07;;
3841;SDS011;1936;47.074;15.336;2023-09-30T00:38:40;9.60;;;8.70;;
3841;SDS011;1936;47.074;15.336;2023-09-30T00:40:47;10.60;;;8.77;;
3841;SDS011;1936;47.074;15.336;2023-09-30T00:42:51;14.50;;;9.37;;
3841;SDS011;1936;47.074;15.336;2023-09-30T00:44:54;11.03;;;9.63;;
3841;SDS011;1936;47.074;15.336;2023-09-30T00:46:58;10.47;;;9.33;;
3841;SDS011;1936;47.074;15.336;2023-09-30T00:49:02;8.47;;;7.57;;
3841;SDS011;1936;47.074;15.336;2023-09-30T00:51:06;8.90;;;8.07;;
3841;SDS011;1936;47.074;15.336;2023-09-30T00:53:09;10.63;;;7.73;;
3841;SDS011;1936;47.074;15.336;2023-09-30T00:55:14;11.00;;;9.83;;
3841;SDS011;1936;47.074;15.336;2023-09-30T00:57:19;18.43;;;10.13;;
3841;SDS011;1936;47.074;15.336;2023-09-30T00:59:24;12.57;;;8.13;;
3841;SDS011;1936;47.074;15.336;2023-09-30T01:01:28;10.67;;;8.10;;
3841;SDS011;1936;47.074;15.336;2023-09-30T01:03:31;9.37;;;8.40;;
3841;SDS011;1936;47.074;15.336;2023-09-30T01:05:34;14.73;;;9.17;;
3841;SDS011;1936;47.074;15.336;2023-09-30T01:07:37;17.03;;;9.40;;
3841;SDS011;1936;47.074;15.336;2023-09-30T01:09:41;8.87;;;8.10;;
3841;SDS011;1936;47.074;15.336;2023-09-30T01:11:46;11.30;;;8.70;;
3841;SDS011;1936;47.074;15.336;2023-09-30T01:13:50;9.67;;;8.83;;
3841;SDS011;1936;47.074;15.336;2023-09-30T01:15:54;11.43;;;9.20;;
3841;SDS011;1936;47.074;15.336;2023-09-30T01:17:57;10.00;;;9.00;;
3841;SDS011;1936;47.074;15.336;2023-09-30T01:20:01;11.03;;;9.07;;
3841;SDS011;1936;47.074;15.336;2023-09-30T01:22:07;8.97;;;8.20;;
3841;SDS011;1936;47.074;15.336;2023-09-30T01:24:11;11.20;;;9.37;;
3841;SDS011;1936;47.074;15.336;2023-09-30T01:26:15;10.00;;;7.40;;
3841;SDS011;1936;47.074;15.336;2023-09-30T01:28:18;11.13;;;9.60;;
3841;SDS011;1936;47.074;15.336;2023-09-30T01:30:22;10.23;;;8.37;;
3841;SDS011;1936;47.074;15.336;2023-09-30T01:32:25;9.97;;;9.07;;
3841;SDS011;1936;47.074;15.336;2023-09-30T01:34:30;16.37;;;9.63;;
3841;SDS011;1936;47.074;15.336;2023-09-30T01:36:33;11.27;;;9.20;;
3841;SDS011;1936;47.074;15.336;2023-09-30T01:38:38;12.47;;;8.73;;
3841;SDS011;1936;47.074;15.336;2023-09-30T01:40:42;9.10;;;8.30;;
3841;SDS011;1936;47.074;15.336;2023-09-30T01:42:45;9.43;;;8.47;;
3841;SDS011;1936;47.074;15.336;2023-09-30T01:44:48;11.97;;;9.00;;
3841;SDS011;1936;47.074;15.336;2023-09-30T01:46:51;10.50;;;9.47;;
3841;SDS011;1936;47.074;15.336;2023-09-30T01:48:55;11.10;;;8.07;;
3841;SDS011;1936;47.074;15.336;2023-09-30T01:50:57;10.23;;;8.00;;
3841;SDS011;1936;47.074;15.336;2023-09-30T01:53:01;8.97;;;8.17;;
3841;SDS011;1936;47.074;15.336;2023-09-30T01:55:06;10.57;;;8.63;;
3841;SDS011;1936;47.074;15.336;2023-09-30T01:57:10;10.77;;;8.50;;
3841;SDS011;1936;47.074;15.336;2023-09-30T01:59:14;11.57;;;8.53;;
3841;SDS011;1936;47.074;15.336;2023-09-30T02:01:18;18.27;;;9.27;;
3841;SDS011;1936;47.074;15.336;2023-09-30T02:03:21;13.93;;;8.50;;
3841;SDS011;1936;47.074;15.336;2023-09-30T02:05:25;9.10;;;8.20;;
3841;SDS011;1936;47.074;15.336;2023-09-30T02:07:28;11.63;;;9.23;;
3841;SDS011;1936;47.074;15.336;2023-09-30T02:09:31;10.63;;;9.53;;
3841;SDS011;1936;47.074;15.336;2023-09-30T02:11:37;9.00;;;8.10;;
3841;SDS011;1936;47.074;15.336;2023-09-30T02:13:39;9.30;;;8.27;;
3841;SDS011;1936;47.074;15.336;2023-09-30T02:15:44;11.23;;;8.10;;
3841;SDS011;1936;47.074;15.336;2023-09-30T02:17:47;13.80;;;9.90;;
3841;SDS011;1936;47.074;15.336;2023-09-30T02:19:51;8.77;;;7.23;;
3841;SDS011;1936;47.074;15.336;2023-09-30T02:21:56;9.63;;;8.33;;
3841;SDS011;1936;47.074;15.336;2023-09-30T02:24:00;9.50;;;8.60;;
3841;SDS011;1936;47.074;15.336;2023-09-30T02:26:08;11.47;;;8.53;;
3841;SDS011;1936;47.074;15.336;2023-09-30T02:28:12;12.93;;;8.63;;
3841;SDS011;1936;47.074;15.336;2023-09-30T02:30:16;14.80;;;7.80;;
3841;SDS011;1936;47.074;15.336;2023-09-30T02:32:19;11.10;;;9.13;;
3841;SDS011;1936;47.074;15.336;2023-09-30T02:34:22;10.77;;;9.37;;
3841;SDS011;1936;47.074;15.336;2023-09-30T02:36:26;9.10;;;8.20;;
3841;SDS011;1936;47.074;15.336;2023-09-30T02:38:29;12.60;;;9.03;;
3841;SDS011;1936;47.074;15.336;2023-09-30T02:40:33;10.10;;;8.37;;
3841;SDS011;1936;47.074;15.336;2023-09-30T02:42:36;12.43;;;9.77;;
3841;SDS011;1936;47.074;15.336;2023-09-30T02:44:42;9.07;;;8.13;;
3841;SDS011;1936;47.074;15.336;2023-09-30T02:46:45;14.73;;;10.80;;
3841;SDS011;1936;47.074;15.336;2023-09-30T02:48:49;10.70;;;9.57;;
3841;SDS011;1936;47.074;15.336;2023-09-30T02:50:53;9.33;;;8.47;;
3841;SDS011;1936;47.074;15.336;2023-09-30T02:52:57;11.33;;;9.30;;
3841;SDS011;1936;47.074;15.336;2023-09-30T02:55:00;11.80;;;9.50;;
3841;SDS011;1936;47.074;15.336;2023-09-30T02:57:04;11.13;;;9.00;;
3841;SDS011;1936;47.074;15.336;2023-09-30T02:59:06;10.67;;;9.40;;
3841;SDS011;1936;47.074;15.336;2023-09-30T03:01:14;17.47;;;8.77;;
3841;SDS011;1936;47.074;15.336;2023-09-30T03:03:19;12.27;;;8.40;;
3841;SDS011;1936;47.074;15.336;2023-09-30T03:05:23;8.90;;;8.00;;
3841;SDS011;1936;47.074;15.336;2023-09-30T03:07:28;12.20;;;7.70;;
3841;SDS011;1936;47.074;15.336;2023-09-30T03:09:34;11.50;;;8.40;;
3841;SDS011;1936;47.074;15.336;2023-09-30T03:11:38;9.90;;;7.93;;
3841;SDS011;1936;47.074;15.336;2023-09-30T03:13:42;9.23;;;7.97;;
3841;SDS011;1936;47.074;15.336;2023-09-30T03:15:46;9.60;;;8.60;;
3841;SDS011;1936;47.074;15.336;2023-09-30T03:17:52;10.90;;;8.20;;
3841;SDS011;1936;47.074;15.336;2023-09-30T03:19:57;13.30;;;9.47;;
3841;SDS011;1936;47.074;15.336;2023-09-30T03:22:00;11.80;;;9.10;;
3841;SDS011;1936;47.074;15.336;2023-09-30T03:24:07;11.10;;;8.37;;
3841;SDS011;1936;47.074;15.336;2023-09-30T03:26:10;13.37;;;10.33;;
3841;SDS011;1936;47.074;15.336;2023-09-30T03:28:14;11.23;;;9.40;;
3841;SDS011;1936;47.074;15.336;2023-09-30T03:30:18;12.10;;;9.07;;
3841;SDS011;1936;47.074;15.336;2023-09-30T03:32:22;16.90;;;9.50;;
3841;SDS011;1936;47.074;15.336;2023-09-30T03:34:28;11.10;;;9.70;;
3841;SDS011;1936;47.074;15.336;2023-09-30T03:36:31;10.47;;;7.93;;
3841;SDS011;1936;47.074;15.336;2023-09-30T03:38:34;12.80;;;9.07;;
3841;SDS011;1936;47.074;15.336;2023-09-30T03:40:38;10.87;;;9.40;;
3841;SDS011;1936;47.074;15.336;2023-09-30T03:42:51;14.47;;;9.87;;
3841;SDS011;1936;47.074;15.336;2023-09-30T03:44:54;16.70;;;9.03;;
3841;SDS011;1936;47.074;15.336;2023-09-30T03:46:58;10.00;;;9.00;;
3841;SDS011;1936;47.074;15.336;2023-09-30T03:49:03;10.37;;;8.73;;
3841;SDS011;1936;47.074;15.336;2023-09-30T03:51:11;9.87;;;8.70;;
3841;SDS011;1936;47.074;15.336;2023-09-30T03:53:16;12.00;;;8.50;;
3841;SDS011;1936;47.074;15.336;2023-09-30T03:55:19;13.63;;;8.37;;
3841;SDS011;1936;47.074;15.336;2023-09-30T03:57:24;8.50;;;7.70;;
3841;SDS011;1936;47.074;15.336;2023-09-30T03:59:29;11.33;;;8.80;;
3841;SDS011;1936;47.074;15.336;2023-09-30T04:01:32;8.90;;;8.10;;
3841;SDS011;1936;47.074;15.336;2023-09-30T04:03:36;11.37;;;7.33;;
3841;SDS011;1936;47.074;15.336;2023-09-30T04:05:41;12.47;;;8.43;;
3841;SDS011;1936;47.074;15.336;2023-09-30T04:07:46;11.70;;;8.67;;
3841;SDS011;1936;47.074;15.336;2023-09-30T04:09:49;9.97;;;7.30;;
3841;SDS011;1936;47.074;15.336;2023-09-30T04:11:53;13.83;;;8.73;;
3841;SDS011;1936;47.074;15.336;2023-09-30T04:13:56;10.47;;;7.70;;
3841;SDS011;1936;47.074;15.336;2023-09-30T04:16:00;10.90;;;7.83;;
3841;SDS011;1936;47.074;15.336;2023-09-30T04:18:04;10.00;;;8.63;;
3841;SDS011;1936;47.074;15.336;2023-09-30T04:20:08;11.20;;;7.67;;
3841;SDS011;1936;47.074;15.336;2023-09-30T04:22:12;14.07;;;8.97;;
3841;SDS011;1936;47.074;15.336;2023-09-30T04:24:19;9.33;;;7.70;;
3841;SDS011;1936;47.074;15.336;2023-09-30T04:26:22;9.50;;;7.70;;
3841;SDS011;1936;47.074;15.336;2023-09-30T04:28:26;10.70;;;9.03;;
3841;SDS011;1936;47.074;15.336;2023-09-30T04:30:30;12.07;;;9.00;;
3841;SDS011;1936;47.074;15.336;2023-09-30T04:32:34;11.40;;;7.97;;
3841;SDS011;1936;47.074;15.336;2023-09-30T04:34:38;9.27;;;8.10;;
3841;SDS011;1936;47.074;15.336;2023-09-30T04:36:45;9.70;;;7.70;;
3841;SDS011;1936;47.074;15.336;2023-09-30T04:38:49;10.40;;;8.00;;
3841;SDS011;1936;47.074;15.336;2023-09-30T04:40:54;9.37;;;8.07;;
3841;SDS011;1936;47.074;15.336;2023-09-30T04:42:57;9.40;;;8.50;;
3841;SDS011;1936;47.074;15.336;2023-09-30T04:45:01;14.50;;;8.10;;
3841;SDS011;1936;47.074;15.336;2023-09-30T04:47:05;11.23;;;8.03;;
3841;SDS011;1936;47.074;15.336;2023-09-30T04:49:09;9.73;;;8.73;;
3841;SDS011;1936;47.074;15.336;2023-09-30T04:51:12;9.40;;;8.00;;
3841;SDS011;1936;47.074;15.336;2023-09-30T04:53:18;11.87;;;8.30;;
3841;SDS011;1936;47.074;15.336;2023-09-30T04:55:21;9.20;;;8.30;;
3841;SDS011;1936;47.074;15.336;2023-09-30T04:57:26;8.43;;;7.57;;
3841;SDS011;1936;47.074;15.336;2023-09-30T04:59:30;13.20;;;7.77;;
3841;SDS011;1936;47.074;15.336;2023-09-30T05:01:33;9.83;;;8.60;;
3841;SDS011;1936;47.074;15.336;2023-09-30T05:03:37;9.90;;;8.10;;
3841;SDS011;1936;47.074;15.336;2023-09-30T05:05:41;10.60;;;7.70;;
3841;SDS011;1936;47.074;15.336;2023-09-30T05:07:45;11.60;;;7.73;;
3841;SDS011;1936;47.074;15.336;2023-09-30T05:09:49;8.07;;;7.37;;
3841;SDS011;1936;47.074;15.336;2023-09-30T05:11:52;8.70;;;7.50;;
3841;SDS011;1936;47.074;15.336;2023-09-30T05:13:58;11.73;;;8.23;;
3841;SDS011;1936;47.074;15.336;2023-09-30T05:16:02;9.53;;;7.07;;
3841;SDS011;1936;47.074;15.336;2023-09-30T05:18:06;8.60;;;7.63;;
3841;SDS011;1936;47.074;15.336;2023-09-30T05:20:10;9.53;;;7.17;;
3841;SDS011;1936;47.074;15.336;2023-09-30T05:22:14;8.53;;;7.23;;
3841;SDS011;1936;47.074;15.336;2023-09-30T05:24:20;11.27;;;9.20;;
3841;SDS011;1936;47.074;15.336;2023-09-30T05:26:24;10.40;;;8.30;;
3841;SDS011;1936;47.074;15.336;2023-09-30T05:28:27;7.60;;;6.60;;
3841;SDS011;1936;47.074;15.336;2023-09-30T05:30:31;8.20;;;7.30;;
3841;SDS011;1936;47.074;15.336;2023-09-30T05:32:36;10.07;;;8.93;;
3841;SDS011;1936;47.074;15.336;2023-09-30T05:34:40;12.67;;;8.00;;
3841;SDS011;1936;47.074;15.336;2023-09-30T05:36:45;8.17;;;7.30;;
3841;SDS011;1936;47.074;15.336;2023-09-30T05:38:50;8.47;;;7.30;;
3841;SDS011;1936;47.074;15.336;2023-09-30T05:40:53;8.47;;;7.67;;
3841;SDS011;1936;47.074;15.336;2023-09-30T05:42:58;9.87;;;8.30;;
3841;SDS011;1936;47.074;15.336;2023-09-30T05:45:01;9.50;;;8.50;;
3841;SDS011;1936;47.074;15.336;2023-09-30T05:47:09;13.80;;;8.30;;
3841;SDS011;1936;47.074;15.336;2023-09-30T05:49:13;12.27;;;9.10;;
3841;SDS011;1936;47.074;15.336;2023-09-30T05:51:16;9.87;;;7.90;;
3841;SDS011;1936;47.074;15.336;2023-09-30T05:53:20;10.40;;;8.83;;
3841;SDS011;1936;47.074;15.336;2023-09-30T05:55:24;9.83;;;6.83;;
3841;SDS011;1936;47.074;15.336;2023-09-30T05:57:28;9.30;;;8.00;;
3841;SDS011;1936;47.074;15.336;2023-09-30T05:59:31;9.93;;;7.70;;
3841;SDS011;1936;47.074;15.336;2023-09-30T06:01:35;8.23;;;7.40;;
3841;SDS011;1936;47.074;15.336;2023-09-30T06:03:41;9.73;;;8.73;;
3841;SDS011;1936;47.074;15.336;2023-09-30T06:05:44;9.03;;;7.50;;
3841;SDS011;1936;47.074;15.336;2023-09-30T06:07:48;9.37;;;8.37;;
3841;SDS011;1936;47.074;15.336;2023-09-30T06:09:50;11.47;;;8.60;;
3841;SDS011;1936;47.074;15.336;2023-09-30T06:11:55;10.80;;;8.33;;
3841;SDS011;1936;47.074;15.336;2023-09-30T06:13:59;13.17;;;9.27;;
3841;SDS011;1936;47.074;15.336;2023-09-30T06:16:02;13.37;;;9.27;;
3841;SDS011;1936;47.074;15.336;2023-09-30T06:18:09;12.00;;;8.77;;
3841;SDS011;1936;47.074;15.336;2023-09-30T06:20:17;11.60;;;8.93;;
3841;SDS011;1936;47.074;15.336;2023-09-30T06:22:20;10.53;;;9.03;;
3841;SDS011;1936;47.074;15.336;2023-09-30T06:24:26;11.27;;;7.50;;
3841;SDS011;1936;47.074;15.336;2023-09-30T06:26:30;13.27;;;9.47;;
3841;SDS011;1936;47.074;15.336;2023-09-30T06:28:34;11.60;;;9.00;;
3841;SDS011;1936;47.074;15.336;2023-09-30T06:30:42;14.17;;;8.63;;
3841;SDS011;1936;47.074;15.336;2023-09-30T06:32:47;14.30;;;10.20;;
3841;SDS011;1936;47.074;15.336;2023-09-30T06:34:51;11.00;;;9.87;;
3841;SDS011;1936;47.074;15.336;2023-09-30T06:36:56;14.73;;;9.37;;
3841;SDS011;1936;47.074;15.336;2023-09-30T06:38:59;11.73;;;9.30;;
3841;SDS011;1936;47.074;15.336;2023-09-30T06:41:07;10.63;;;9.27;;
3841;SDS011;1936;47.074;15.336;2023-09-30T06:43:11;11.93;;;7.93;;
3841;SDS011;1936;47.074;15.336;2023-09-30T06:45:17;14.40;;;8.73;;
3841;SDS011;1936;47.074;15.336;2023-09-30T06:47:20;12.93;;;9.07;;
3841;SDS011;1936;47.074;15.336;2023-09-30T06:49:23;10.10;;;8.23;;
3841;SDS011;1936;47.074;15.336;2023-09-30T06:51:26;10.90;;;8.57;;
3841;SDS011;1936;47.074;15.336;2023-09-30T06:53:31;14.23;;;8.60;;
3841;SDS011;1936;47.074;15.336;2023-09-30T06:55:36;13.80;;;8.90;;
3841;SDS011;1936;47.074;15.336;2023-09-30T06:57:41;12.90;;;9.70;;
3841;SDS011;1936;47.074;15.336;2023-09-30T06:59:44;12.27;;;9.27;;
3841;SDS011;1936;47.074;15.336;2023-09-30T07:01:48;14.83;;;9.93;;
3841;SDS011;1936;47.074;15.336;2023-09-30T07:03:52;13.77;;;9.90;;
3841;SDS011;1936;47.074;15.336;2023-09-30T07:05:56;17.90;;;10.53;;
3841;SDS011;1936;47.074;15.336;2023-09-30T07:08:02;15.20;;;10.40;;
3841;SDS011;1936;47.074;15.336;2023-09-30T07:10:08;16.10;;;10.20;;
3841;SDS011;1936;47.074;15.336;2023-09-30T07:12:11;15.90;;;10.50;;
3841;SDS011;1936;47.074;15.336;2023-09-30T07:14:14;19.43;;;10.93;;
3841;SDS011;1936;47.074;15.336;2023-09-30T07:16:18;11.50;;;9.17;;
3841;SDS011;1936;47.074;15.336;2023-09-30T07:18:21;15.47;;;11.07;;
3841;SDS011;1936;47.074;15.336;2023-09-30T07:20:26;10.90;;;8.47;;
3841;SDS011;1936;47.074;15.336;2023-09-30T07:22:34;16.03;;;10.23;;
3841;SDS011;1936;47.074;15.336;2023-09-30T07:24:56;14.67;;;9.00;;
3841;SDS011;1936;47.074;15.336;2023-09-30T07:27:01;13.23;;;9.60;;
3841;SDS011;1936;47.074;15.336;2023-09-30T07:29:21;12.07;;;9.37;;
3841;SDS011;1936;47.074;15.336;2023-09-30T07:31:24;15.20;;;10.40;;
3841;SDS011;1936;47.074;15.336;2023-09-30T07:33:28;15.73;;;10.43;;
3841;SDS011;1936;47.074;15.336;2023-09-30T07:35:33;11.00;;;8.10;;
3841;SDS011;1936;47.074;15.336;2023-09-30T07:37:37;14.47;;;9.57;;
3841;SDS011;1936;47.074;15.336;2023-09-30T07:39:41;12.80;;;9.93;;
3841;SDS011;1936;47.074;15.336;2023-09-30T07:41:48;14.37;;;9.60;;
3841;SDS011;1936;47.074;15.336;2023-09-30T07:43:52;14.50;;;10.40;;
3841;SDS011;1936;47.074;15.336;2023-09-30T07:45:56;14.77;;;10.67;;
3841;SDS011;1936;47.074;15.336;2023-09-30T07:48:00;14.77;;;9.33;;
3841;SDS011;1936;47.074;15.336;2023-09-30T07:50:06;13.33;;;8.97;;
3841;SDS011;1936;47.074;15.336;2023-09-30T07:52:12;12.70;;;8.97;;
3841;SDS011;1936;47.074;15.336;2023-09-30T07:54:15;13.77;;;10.80;;
3841;SDS011;1936;47.074;15.336;2023-09-30T07:56:32;23.77;;;10.00;;
3841;SDS011;1936;47.074;15.336;2023-09-30T07:58:35;14.63;;;9.97;;
3841;SDS011;1936;47.074;15.336;2023-09-30T08:00:40;15.43;;;10.17;;
3841;SDS011;1936;47.074;15.336;2023-09-30T08:02:46;13.07;;;11.13;;
3841;SDS011;1936;47.074;15.336;2023-09-30T08:04:50;11.43;;;9.90;;
3841;SDS011;1936;47.074;15.336;2023-09-30T08:06:53;14.53;;;9.50;;
3841;SDS011;1936;47.074;15.336;2023-09-30T08:08:57;13.00;;;9.60;;
3841;SDS011;1936;47.074;15.336;2023-09-30T08:11:00;14.87;;;10.20;;
3841;SDS011;1936;47.074;15.336;2023-09-30T08:13:04;13.40;;;9.13;;
3841;SDS011;1936;47.074;15.336;2023-09-30T08:15:08;14.80;;;11.03;;
3841;SDS011;1936;47.074;15.336;2023-09-30T08:17:15;16.10;;;10.53;;
3841;SDS011;1936;47.074;15.336;2023-09-30T08:19:19;15.83;;;10.30;;
3841;SDS011;1936;47.074;15.336;2023-09-30T08:21:22;13.23;;;9.93;;
3841;SDS011;1936;47.074;15.336;2023-09-30T08:23:30;14.93;;;11.57;;
3841;SDS011;1936;47.074;15.336;2023-09-30T08:25:33;10.97;;;9.13;;
3841;SDS011;1936;47.074;15.336;2023-09-30T08:27:37;12.77;;;10.20;;
3841;SDS011;1936;47.074;15.336;2023-09-30T08:29:41;14.07;;;10.33;;
3841;SDS011;1936;47.074;15.336;2023-09-30T08:31:45;12.87;;;8.57;;
3841;SDS011;1936;47.074;15.336;2023-09-30T08:33:49;14.20;;;10.17;;
3841;SDS011;1936;47.074;15.336;2023-09-30T08:35:53;17.03;;;11.80;;
3841;SDS011;1936;47.074;15.336;2023-09-30T08:37:56;46.13;;;28.10;;
3841;SDS011;1936;47.074;15.336;2023-09-30T08:40:01;23.97;;;14.37;;
3841;SDS011;1936;47.074;15.336;2023-09-30T08:42:06;34.47;;;25.00;;
3841;SDS011;1936;47.074;15.336;2023-09-30T08:44:12;18.93;;;14.87;;
3841;SDS011;1936;47.074;15.336;2023-09-30T08:46:16;21.43;;;15.30;;
3841;SDS011;1936;47.074;15.336;2023-09-30T08:48:20;21.03;;;16.60;;
3841;SDS011;1936;47.074;15.336;2023-09-30T08:50:29;23.53;;;16.67;;
3841;SDS011;1936;47.074;15.336;2023-09-30T08:52:33;22.07;;;15.07;;
3841;SDS011;1936;47.074;15.336;2023-09-30T08:54:41;19.87;;;13.43;;
3841;SDS011;1936;47.074;15.336;2023-09-30T08:56:44;16.47;;;12.03;;
3841;SDS011;1936;47.074;15.336;2023-09-30T08:58:51;13.87;;;10.57;;
3841;SDS011;1936;47.074;15.336;2023-09-30T09:00:57;13.83;;;9.30;;
3841;SDS011;1936;47.074;15.336;2023-09-30T09:03:01;17.90;;;10.93;;
3841;SDS011;1936;47.074;15.336;2023-09-30T09:05:06;12.97;;;10.10;;
3841;SDS011;1936;47.074;15.336;2023-09-30T09:07:10;16.40;;;11.40;;
3841;SDS011;1936;47.074;15.336;2023-09-30T09:09:14;15.20;;;10.67;;
3841;SDS011;1936;47.074;15.336;2023-09-30T09:11:19;16.20;;;10.23;;
3841;SDS011;1936;47.074;15.336;2023-09-30T09:13:23;14.50;;;10.77;;
3841;SDS011;1936;47.074;15.336;2023-09-30T09:15:28;13.70;;;10.00;;
3841;SDS011;1936;47.074;15.336;2023-09-30T09:17:41;12.57;;;9.13;;
3841;SDS011;1936;47.074;15.336;2023-09-30T09:19:49;11.63;;;8.97;;
3841;SDS011;1936;47.074;15.336;2023-09-30T09:22:01;12.13;;;9.10;;
3841;SDS011;1936;47.074;15.336;2023-09-30T09:24:10;13.63;;;9.53;;
3841;SDS011;1936;47.074;15.336;2023-09-30T09:26:30;12.77;;;9.70;;
3841;SDS011;1936;47.074;15.336;2023-09-30T09:28:36;11.63;;;9.93;;
3841;SDS011;1936;47.074;15.336;2023-09-30T09:30:41;10.93;;;9.10;;
3841;SDS011;1936;47.074;15.336;2023-09-30T09:32:52;16.53;;;10.30;;
3841;SDS011;1936;47.074;15.336;2023-09-30T09:35:06;11.20;;;8.73;;
3841;SDS011;1936;47.074;15.336;2023-09-30T09:37:12;10.50;;;8.37;;
3841;SDS011;1936;47.074;15.336;2023-09-30T09:39:19;10.93;;;7.60;;
3841;SDS011;1936;47.074;15.336;2023-09-30T09:41:33;9.83;;;8.80;;
3841;SDS011;1936;47.074;15.336;2023-09-30T09:43:52;10.03;;;9.00;;
3841;SDS011;1936;47.074;15.336;2023-09-30T09:45:56;9.63;;;8.60;;
3841;SDS011;1936;47.074;15.336;2023-09-30T09:48:05;8.63;;;7.83;;
3841;SDS011;1936;47.074;15.336;2023-09-30T09:50:10;8.33;;;7.33;;
3841;SDS011;1936;47.074;15.336;2023-09-30T09:52:13;9.17;;;7.83;;
3841;SDS011;1936;47.074;15.336;2023-09-30T09:54:19;9.23;;;8.20;;
3841;SDS011;1936;47.074;15.336;2023-09-30T09:56:25;10.37;;;7.30;;
3841;SDS011;1936;47.074;15.336;2023-09-30T09:58:29;8.27;;;7.47;;
3841;SDS011;1936;47.074;15.336;2023-09-30T10:00:35;7.40;;;6.60;;
3841;SDS011;1936;47.074;15.336;2023-09-30T10:02:40;7.20;;;6.07;;
3841;SDS011;1936;47.074;15.336;2023-09-30T10:04:43;7.17;;;6.50;;
3841;SDS011;1936;47.074;15.336;2023-09-30T10:06:48;6.97;;;6.37;;
3841;SDS011;1936;47.074;15.336;2023-09-30T10:08:57;7.40;;;6.70;;
3841;SDS011;1936;47.074;15.336;2023-09-30T10:11:02;8.40;;;7.50;;
3841;SDS011;1936;47.074;15.336;2023-09-30T10:13:05;6.63;;;6.03;;
3841;SDS011;1936;47.074;15.336;2023-09-30T10:17:57;8.10;;;6.50;;
3841;SDS011;1936;47.074;15.336;2023-09-30T10:20:03;10.33;;;6.97;;
3841;SDS011;1936;47.074;15.336;2023-09-30T10:22:20;7.20;;;6.60;;
3841;SDS011;1936;47.074;15.336;2023-09-30T10:24:30;8.57;;;7.63;;
3841;SDS011;1936;47.074;15.336;2023-09-30T10:26:35;7.10;;;5.97;;
3841;SDS011;1936;47.074;15.336;2023-09-30T10:28:39;9.07;;;7.07;;
3841;SDS011;1936;47.074;15.336;2023-09-30T10:30:57;8.40;;;7.53;;
3841;SDS011;1936;47.074;15.336;2023-09-30T10:33:15;8.17;;;7.47;;
3841;SDS011;1936;47.074;15.336;2023-09-30T10:35:19;6.83;;;6.10;;
3841;SDS011;1936;47.074;15.336;2023-09-30T10:37:22;8.13;;;7.37;;
3841;SDS011;1936;47.074;15.336;2023-09-30T10:42:01;8.30;;;6.67;;
3841;SDS011;1936;47.074;15.336;2023-09-30T10:46:36;8.17;;;7.37;;
3841;SDS011;1936;47.074;15.336;2023-09-30T10:48:39;6.70;;;6.10;;
3841;SDS011;1936;47.074;15.336;2023-09-30T10:50:49;7.50;;;6.80;;
3841;SDS011;1936;47.074;15.336;2023-09-30T10:52:53;10.23;;;6.87;;
3841;SDS011;1936;47.074;15.336;2023-09-30T10:55:01;7.57;;;6.57;;
3841;SDS011;1936;47.074;15.336;2023-09-30T10:57:09;7.27;;;6.40;;
3841;SDS011;1936;47.074;15.336;2023-09-30T10:59:18;9.50;;;7.10;;
3841;SDS011;1936;47.074;15.336;2023-09-30T11:01:22;7.30;;;6.60;;
3841;SDS011;1936;47.074;15.336;2023-09-30T11:03:27;7.20;;;6.30;;
3841;SDS011;1936;47.074;15.336;2023-09-30T11:05:29;7.10;;;6.43;;
3841;SDS011;1936;47.074;15.336;2023-09-30T11:07:55;7.73;;;6.77;;
3841;SDS011;1936;47.074;15.336;2023-09-30T11:10:03;8.77;;;6.37;;
3841;SDS011;1936;47.074;15.336;2023-09-30T11:12:14;7.60;;;6.00;;
3841;SDS011;1936;47.074;15.336;2023-09-30T11:14:18;6.87;;;6.20;;
3841;SDS011;1936;47.074;15.336;2023-09-30T11:16:22;6.40;;;5.80;;
3841;SDS011;1936;47.074;15.336;2023-09-30T11:18:26;7.10;;;6.40;;
3841;SDS011;1936;47.074;15.336;2023-09-30T11:20:28;7.17;;;6.47;;
3841;SDS011;1936;47.074;15.336;2023-09-30T11:22:32;8.23;;;6.23;;
3841;SDS011;1936;47.074;15.336;2023-09-30T11:24:36;9.30;;;6.57;;
3841;SDS011;1936;47.074;15.336;2023-09-30T11:26:40;7.33;;;6.70;;
3841;SDS011;1936;47.074;15.336;2023-09-30T11:28:45;7.30;;;6.60;;
3841;SDS011;1936;47.074;15.336;2023-09-30T11:30:54;9.30;;;7.43;;
3841;SDS011;1936;47.074;15.336;2023-09-30T11:32:58;9.00;;;6.77;;
3841;SDS011;1936;47.074;15.336;2023-09-30T11:35:03;9.70;;;6.87;;
3841;SDS011;1936;47.074;15.336;2023-09-30T11:37:10;7.93;;;7.13;;
3841;SDS011;1936;47.074;15.336;2023-09-30T11:39:21;7.20;;;6.60;;
3841;SDS011;1936;47.074;15.336;2023-09-30T11:41:31;8.10;;;7.30;;
3841;SDS011;1936;47.074;15.336;2023-09-30T11:43:36;7.73;;;6.33;;
3841;SDS011;1936;47.074;15.336;2023-09-30T11:45:41;8.17;;;7.37;;
3841;SDS011;1936;47.074;15.336;2023-09-30T11:47:45;7.53;;;6.83;;
3841;SDS011;1936;47.074;15.336;2023-09-30T11:49:52;7.53;;;6.70;;
3841;SDS011;1936;47.074;15.336;2023-09-30T11:51:57;7.70;;;6.90;;
3841;SDS011;1936;47.074;15.336;2023-09-30T11:54:00;8.43;;;7.63;;
3841;SDS011;1936;47.074;15.336;2023-09-30T11:56:05;8.90;;;8.00;;
3841;SDS011;1936;47.074;15.336;2023-09-30T11:58:10;7.47;;;6.77;;
3841;SDS011;1936;47.074;15.336;2023-09-30T12:00:19;8.23;;;7.37;;
3841;SDS011;1936;47.074;15.336;2023-09-30T12:02:27;8.53;;;7.80;;
3841;SDS011;1936;47.074;15.336;2023-09-30T12:04:31;8.40;;;7.60;;
3841;SDS011;1936;47.074;15.336;2023-09-30T12:06:36;11.47;;;6.97;;
3841;SDS011;1936;47.074;15.336;2023-09-30T12:08:40;10.10;;;6.97;;
3841;SDS011;1936;47.074;15.336;2023-09-30T12:10:42;7.43;;;6.73;;
3841;SDS011;1936;47.074;15.336;2023-09-30T12:12:46;8.10;;;7.30;;
3841;SDS011;1936;47.074;15.336;2023-09-30T12:14:49;8.63;;;7.83;;
3841;SDS011;1936;47.074;15.336;2023-09-30T12:16:53;7.47;;;6.73;;
3841;SDS011;1936;47.074;15.336;2023-09-30T12:18:59;7.17;;;6.47;;
3841;SDS011;1936;47.074;15.336;2023-09-30T12:21:02;7.30;;;6.33;;
3841;SDS011;1936;47.074;15.336;2023-09-30T12:23:08;9.30;;;7.50;;
3841;SDS011;1936;47.074;15.336;2023-09-30T12:25:11;7.50;;;6.80;;
3841;SDS011;1936;47.074;15.336;2023-09-30T12:27:14;8.80;;;7.33;;
3841;SDS011;1936;47.074;15.336;2023-09-30T12:29:19;6.97;;;6.00;;
3841;SDS011;1936;47.074;15.336;2023-09-30T12:31:24;6.83;;;6.23;;
3841;SDS011;1936;47.074;15.336;2023-09-30T12:33:28;7.60;;;6.67;;
3841;SDS011;1936;47.074;15.336;2023-09-30T12:35:33;8.07;;;6.67;;
3841;SDS011;1936;47.074;15.336;2023-09-30T12:37:37;7.80;;;7.00;;
3841;SDS011;1936;47.074;15.336;2023-09-30T12:39:41;7.30;;;6.60;;
3841;SDS011;1936;47.074;15.336;2023-09-30T12:41:46;10.27;;;6.57;;
3841;SDS011;1936;47.074;15.336;2023-09-30T12:43:50;9.03;;;8.00;;